createdAt,value
2023-04-20T00:02:03.130Z,12.34
2023-04-20T00:04:31.608Z,12.42
2023-04-20T00:07:00.088Z,12.37
2023-04-20T00:09:28.607Z,12.51
2023-04-20T00:11:57.299Z,12.31
2023-04-20T00:14:25.520Z,12.32
2023-04-20T00:16:55.543Z,12.74
2023-04-20T00:19:24.090Z,12.33
2023-04-20T00:21:53.111Z,12.31
2023-04-20T00:24:21.893Z,12.34
2023-04-20T00:26:50.347Z,12.32
2023-04-20T00:29:18.772Z,12.39
2023-04-20T00:31:47.416Z,12.42
2023-04-20T00:34:17.123Z,12.78
2023-04-20T00:36:45.723Z,12.39
2023-04-20T00:39:14.133Z,12.37
2023-04-20T00:41:42.560Z,12.34
2023-04-20T00:44:14.036Z,12.34
2023-04-20T00:46:42.700Z,12.37
2023-04-20T00:49:11.273Z,12.41
2023-04-20T00:51:41.207Z,12.72
2023-04-20T00:54:09.516Z,12.33
2023-04-20T00:56:39.707Z,12.69
2023-04-20T00:59:08.265Z,12.27
2023-04-20T01:01:37.514Z,12.32
2023-04-20T01:04:07.938Z,12.34
2023-04-20T01:06:36.669Z,12.35
2023-04-20T01:09:06.371Z,12.78
2023-04-20T01:11:34.869Z,12.41
2023-04-20T01:14:03.238Z,12.51
2023-04-20T01:16:34.972Z,12.66
2023-04-20T01:19:03.596Z,12.56
2023-04-20T01:21:32.264Z,12.44
2023-04-20T01:24:02.051Z,12.90
2023-04-20T01:26:30.797Z,12.59
2023-04-20T01:28:59.251Z,12.63
2023-04-20T01:31:27.891Z,12.62
2023-04-20T01:33:56.110Z,12.66
2023-04-20T01:36:24.933Z,12.68
2023-04-20T01:38:53.970Z,13.03
2023-04-20T01:41:24.743Z,13.11
2023-04-20T01:43:52.946Z,12.72
2023-04-20T01:46:24.542Z,12.73
2023-04-20T01:48:52.492Z,13.83
2023-04-20T01:51:20.985Z,12.84
2023-04-20T01:53:49.062Z,12.71
2023-04-20T01:56:17.481Z,12.68
2023-04-20T01:58:47.001Z,12.99
2023-04-20T02:01:15.447Z,12.66
2023-04-20T02:03:43.817Z,12.60
2023-04-20T02:06:12.405Z,12.62
2023-04-20T02:08:40.614Z,12.67
2023-04-20T02:11:09.477Z,12.79
2023-04-20T02:13:37.717Z,12.71
2023-04-20T02:16:08.167Z,13.09
2023-04-20T02:18:37.495Z,12.65
2023-04-20T02:21:07.049Z,12.96
2023-04-20T02:23:35.280Z,12.68
2023-04-20T02:26:03.878Z,12.69
2023-04-20T02:28:32.108Z,12.58
2023-04-20T02:31:00.685Z,12.58
2023-04-20T02:33:30.224Z,12.98
2023-04-20T02:35:58.647Z,12.54
2023-04-20T02:38:27.287Z,12.64
2023-04-20T02:40:55.778Z,12.76
2023-04-20T02:43:24.022Z,12.82
2023-04-20T02:45:52.512Z,12.95
2023-04-20T02:48:20.726Z,12.92
2023-04-20T02:50:50.708Z,13.38
2023-04-20T02:53:18.866Z,12.94
2023-04-20T02:55:47.353Z,12.93
2023-04-20T02:58:15.529Z,12.92
2023-04-20T03:00:44.162Z,13.04
2023-04-20T03:03:12.474Z,13.03
2023-04-20T03:05:41.515Z,12.97
2023-04-20T03:08:11.138Z,13.31
2023-04-20T03:10:39.796Z,12.89
2023-04-20T03:13:07.974Z,12.87
2023-04-20T03:15:36.617Z,12.94
2023-04-20T03:18:05.311Z,12.88
2023-04-20T03:20:33.806Z,12.85
2023-04-20T03:23:02.062Z,12.70
2023-04-20T03:25:32.246Z,13.09
2023-04-20T03:28:00.514Z,12.67
2023-04-20T03:30:29.352Z,12.64
2023-04-20T03:32:57.640Z,12.64
2023-04-20T03:35:26.337Z,12.69
2023-04-20T03:37:54.508Z,12.67
2023-04-20T03:40:23.115Z,12.66
2023-04-20T03:42:52.664Z,13.12
2023-04-20T03:45:21.217Z,12.70
2023-04-20T03:47:49.521Z,12.68
2023-04-20T03:50:18.087Z,12.74
2023-04-20T03:52:46.226Z,12.68
2023-04-20T03:55:14.811Z,12.66
2023-04-20T03:57:43.011Z,12.61
2023-04-20T04:00:14.269Z,13.17
2023-04-20T04:02:42.906Z,12.72
2023-04-20T04:05:11.982Z,12.66
2023-04-20T04:07:40.199Z,12.62
2023-04-20T04:10:09.755Z,12.85
2023-04-20T04:12:38.712Z,12.71
2023-04-20T04:15:08.873Z,12.99
2023-04-20T04:17:38.572Z,13.15
2023-04-20T04:20:09.080Z,12.97
2023-04-20T04:22:37.541Z,12.75
2023-04-20T04:25:07.712Z,13.06
2023-04-20T04:27:37.756Z,12.89
2023-04-20T04:30:07.472Z,13.06
2023-04-20T04:32:36.172Z,12.86
2023-04-20T04:35:06.840Z,13.37
2023-04-20T04:37:35.084Z,12.99
2023-04-20T04:40:07.376Z,13.06
2023-04-20T04:42:35.702Z,13.22
2023-04-20T04:45:04.770Z,13.43
2023-04-20T04:47:35.930Z,13.76
2023-04-20T04:50:07.251Z,13.86
2023-04-20T04:52:35.543Z,13.44
2023-04-20T04:55:08.141Z,13.57
2023-04-20T04:57:38.875Z,13.60
2023-04-20T05:00:09.819Z,13.92
2023-04-20T05:02:38.223Z,13.88
2023-04-20T05:05:10.262Z,14.37
2023-04-20T05:07:40.255Z,13.95
2023-04-20T05:10:09.782Z,13.98
2023-04-20T05:12:38.878Z,13.85
2023-04-20T05:15:08.608Z,13.93
2023-04-20T05:17:36.758Z,13.76
2023-04-20T05:20:06.913Z,13.94
2023-04-20T05:22:36.554Z,14.33
2023-04-20T05:25:06.347Z,14.22
2023-04-20T05:27:34.818Z,14.43
2023-04-20T05:30:17.088Z,14.64
2023-04-20T05:32:51.586Z,15.01
2023-04-20T05:35:21.810Z,15.57
2023-04-20T05:37:51.792Z,16.67
2023-04-20T05:40:20.375Z,17.14
2023-04-20T05:42:48.542Z,18.22
2023-04-20T05:45:17.358Z,18.88
2023-04-20T05:47:54.222Z,19.57
2023-04-20T05:50:23.491Z,18.92
2023-04-20T05:52:53.611Z,19.11
2023-04-20T05:55:23.047Z,18.71
2023-04-20T05:57:53.094Z,19.15
2023-04-20T06:00:24.470Z,19.22
2023-04-20T06:02:55.360Z,20.25
2023-04-20T06:05:24.284Z,21.31
2023-04-20T06:07:53.959Z,22.01
2023-04-20T06:10:22.667Z,21.49
2023-04-20T06:12:50.996Z,20.30
2023-04-20T06:15:19.701Z,19.01
2023-04-20T06:17:48.280Z,17.83
2023-04-20T06:20:17.411Z,17.42
2023-04-20T06:22:45.913Z,17.40
2023-04-20T06:25:16.496Z,17.60
2023-04-20T06:27:44.708Z,17.58
2023-04-20T06:30:14.069Z,17.85
2023-04-20T06:32:42.383Z,17.28
2023-04-20T06:35:11.241Z,16.78
2023-04-20T06:37:40.375Z,16.55
2023-04-20T06:40:09.721Z,17.09
2023-04-20T06:42:40.188Z,17.47
2023-04-20T06:45:10.008Z,17.22
2023-04-20T06:47:38.665Z,17.48
2023-04-20T06:50:10.168Z,18.62
2023-04-20T06:52:39.052Z,19.01
2023-04-20T06:55:08.053Z,19.25
2023-04-20T06:57:38.759Z,19.31
2023-04-20T07:00:11.230Z,19.81
2023-04-20T07:02:46.923Z,19.77
2023-04-20T07:05:15.977Z,18.63
2023-04-20T07:07:45.333Z,17.93
2023-04-20T07:10:15.928Z,18.08
2023-04-20T07:12:44.677Z,18.69
2023-04-20T07:15:14.602Z,20.55
2023-04-20T07:17:42.851Z,21.79
2023-04-20T07:20:11.803Z,23.23
2023-04-20T07:22:40.437Z,24.11
2023-04-20T07:25:10.377Z,26.11
2023-04-20T07:27:40.038Z,27.75
2023-04-20T07:30:10.795Z,29.16
2023-04-20T07:32:41.729Z,29.74
2023-04-20T07:35:11.350Z,29.26
2023-04-20T07:37:40.624Z,28.28
2023-04-20T07:40:10.508Z,27.82
2023-04-20T07:42:38.848Z,27.35
2023-04-20T07:45:08.726Z,27.61
2023-04-20T07:47:37.213Z,27.60
2023-04-20T07:50:09.165Z,27.94
2023-04-20T07:52:37.581Z,27.39
2023-04-20T07:55:08.330Z,27.79
2023-04-20T07:57:36.903Z,27.26
2023-04-20T08:00:10.034Z,26.97
2023-04-20T08:02:38.348Z,26.55
2023-04-20T08:05:10.224Z,26.49
2023-04-20T08:07:38.625Z,25.77
2023-04-20T08:10:08.214Z,26.13
2023-04-20T08:12:36.830Z,26.34
2023-04-20T08:15:06.992Z,26.78
2023-04-20T08:17:35.408Z,26.56
2023-04-20T08:20:06.015Z,26.50
2023-04-20T08:22:35.849Z,26.81
2023-04-20T08:25:04.842Z,25.81
2023-04-20T08:27:33.491Z,24.72
2023-04-20T08:30:04.364Z,24.00
2023-04-20T08:32:32.662Z,23.16
2023-04-20T08:35:01.287Z,22.97
2023-04-20T08:37:32.073Z,22.50
2023-04-20T08:40:02.825Z,22.79
2023-04-20T08:42:31.072Z,22.60
2023-04-20T08:44:59.729Z,23.28
2023-04-20T08:47:30.039Z,24.13
2023-04-20T08:49:59.684Z,25.02
2023-04-20T08:52:27.875Z,25.09
2023-04-20T08:54:57.763Z,25.10
2023-04-20T08:57:27.768Z,25.68
2023-04-20T08:59:57.761Z,25.74
2023-04-20T09:02:26.321Z,25.05
2023-04-20T09:05:06.119Z,25.55
2023-04-20T09:07:34.457Z,24.53
2023-04-20T09:10:03.315Z,24.53
2023-04-20T09:12:42.079Z,25.07
2023-04-20T09:15:11.717Z,25.16
2023-04-20T09:17:41.244Z,25.78
2023-04-20T09:20:11.460Z,25.51
2023-04-20T09:22:39.924Z,25.04
2023-04-20T09:25:15.730Z,25.64
2023-04-20T09:27:45.512Z,26.34
2023-04-20T09:30:14.432Z,28.31
2023-04-20T09:32:42.713Z,30.53
2023-04-20T09:35:11.464Z,31.81
2023-04-20T09:37:48.830Z,33.51
2023-04-20T09:40:17.726Z,35.29
2023-04-20T09:42:48.700Z,38.02
2023-04-20T09:45:17.683Z,38.37
2023-04-20T09:47:46.174Z,38.55
2023-04-20T09:52:50.399Z,34.15
2023-04-20T09:55:19.350Z,32.98
2023-04-20T09:57:50.098Z,32.74
2023-04-20T10:00:23.277Z,32.34
2023-04-20T10:02:51.851Z,31.02
2023-04-20T10:05:20.954Z,30.36
2023-04-20T10:07:49.310Z,31.51
2023-04-20T10:10:18.265Z,33.37
2023-04-20T10:12:52.401Z,34.87
2023-04-20T10:15:21.967Z,32.59
2023-04-20T10:17:50.632Z,30.04
2023-04-20T10:20:21.017Z,28.27
2023-04-20T10:22:50.454Z,29.21
2023-04-20T10:25:20.923Z,30.02
2023-04-20T10:27:58.368Z,30.65
2023-04-20T10:30:28.350Z,32.51
2023-04-20T10:33:08.743Z,32.69
2023-04-20T10:35:46.292Z,29.53
2023-04-20T10:38:15.013Z,27.25
2023-04-20T10:40:43.995Z,26.09
2023-04-20T10:43:23.606Z,25.48
2023-04-20T10:45:53.508Z,23.84
2023-04-20T10:48:21.880Z,23.32
2023-04-20T10:50:52.243Z,22.18
2023-04-20T10:53:22.091Z,21.79
2023-04-20T10:56:00.230Z,21.43
2023-04-20T10:58:31.607Z,20.60
2023-04-20T11:01:01.528Z,20.07
2023-04-20T11:03:30.487Z,19.57
2023-04-20T11:06:01.653Z,20.45
2023-04-20T11:08:40.928Z,21.94
2023-04-20T11:11:22.528Z,22.49
2023-04-20T11:13:52.757Z,22.91
2023-04-20T11:16:21.381Z,22.99
2023-04-20T11:18:53.913Z,24.37
2023-04-20T11:21:23.247Z,25.88
2023-04-20T11:23:51.769Z,27.19
2023-04-20T11:26:21.009Z,27.93
2023-04-20T11:28:56.134Z,27.27
2023-04-20T11:31:26.864Z,25.82
2023-04-20T11:33:55.349Z,24.61
2023-04-20T11:36:25.393Z,24.02
2023-04-20T11:38:54.135Z,24.01
2023-04-20T11:41:23.310Z,24.31
2023-04-20T11:43:53.294Z,23.84
2023-04-20T11:46:22.150Z,23.40
2023-04-20T11:48:50.925Z,23.37
2023-04-20T11:51:19.546Z,23.72
2023-04-20T11:53:48.556Z,23.81
2023-04-20T11:56:17.293Z,23.69
2023-04-20T11:58:46.945Z,22.67
2023-04-20T12:01:19.433Z,22.19
2023-04-20T12:03:51.268Z,21.18
2023-04-20T12:06:20.727Z,20.80
2023-04-20T12:08:49.489Z,20.97
2023-04-20T12:11:18.976Z,20.90
2023-04-20T12:13:48.747Z,20.53
2023-04-20T12:16:21.868Z,20.62
2023-04-20T12:18:51.635Z,19.85
2023-04-20T12:21:23.491Z,19.90
2023-04-20T12:24:01.021Z,20.78
2023-04-20T12:26:37.816Z,20.63
2023-04-20T12:29:10.907Z,20.77
2023-04-20T12:31:41.853Z,20.79
2023-04-20T12:34:21.391Z,20.85
2023-04-20T12:36:52.776Z,21.25
2023-04-20T12:39:25.164Z,20.58
2023-04-20T12:41:53.956Z,19.69
2023-04-20T12:44:37.259Z,20.04
2023-04-20T12:47:07.717Z,21.22
2023-04-20T12:49:48.231Z,21.49
2023-04-20T12:52:17.253Z,21.12
2023-04-20T12:54:46.552Z,20.42
2023-04-20T12:57:15.265Z,20.04
2023-04-20T12:59:44.239Z,19.65
2023-04-20T13:02:14.028Z,19.26
2023-04-20T13:04:42.959Z,19.69
2023-04-20T13:07:12.308Z,20.02
2023-04-20T13:09:41.294Z,20.23
2023-04-20T13:12:10.018Z,20.87
2023-04-20T13:14:38.858Z,19.72
2023-04-20T13:17:07.870Z,19.84
2023-04-20T13:19:38.341Z,19.57
2023-04-20T13:22:08.116Z,19.54
2023-04-20T13:24:36.711Z,19.21
2023-04-20T13:27:06.006Z,19.27
2023-04-20T13:29:34.930Z,19.49
2023-04-20T13:32:03.551Z,18.30
2023-04-20T13:34:34.636Z,18.07
2023-04-20T13:37:05.333Z,18.51
2023-04-20T13:39:34.913Z,18.16
2023-04-20T13:42:03.537Z,18.46
2023-04-20T13:44:32.516Z,17.69
2023-04-20T13:47:01.093Z,18.25
2023-04-20T13:49:30.078Z,18.95
2023-04-20T13:51:58.504Z,18.16
2023-04-20T13:54:28.852Z,18.32
2023-04-20T13:56:58.028Z,17.91
2023-04-20T13:59:26.924Z,18.66
2023-04-20T14:01:55.386Z,18.66
2023-04-20T14:04:25.579Z,18.38
2023-04-20T14:06:54.281Z,17.69
2023-04-20T14:09:23.230Z,18.48
2023-04-20T14:11:56.477Z,18.12
2023-04-20T14:14:27.168Z,18.34
2023-04-20T14:16:55.716Z,17.86
2023-04-20T14:19:24.626Z,17.84
2023-04-20T14:21:53.406Z,17.83
2023-04-20T14:24:22.497Z,17.76
2023-04-20T14:26:53.718Z,18.01
2023-04-20T14:29:22.534Z,17.91
2023-04-20T14:31:51.510Z,18.83
2023-04-20T14:34:20.738Z,19.08
2023-04-20T14:36:49.584Z,18.08
2023-04-20T14:39:21.222Z,18.97
2023-04-20T14:41:49.781Z,18.18
2023-04-20T14:44:20.185Z,19.34
2023-04-20T14:46:48.762Z,18.71
2023-04-20T14:49:20.418Z,17.59
2023-04-20T14:51:48.778Z,18.00
2023-04-20T14:54:17.925Z,17.88
2023-04-20T14:56:46.821Z,18.07
2023-04-20T14:59:15.523Z,17.45
2023-04-20T15:01:59.119Z,17.52
2023-04-20T15:04:31.910Z,17.43
2023-04-20T15:07:00.506Z,17.21
2023-04-20T15:09:29.644Z,17.65
2023-04-20T15:11:59.210Z,17.24
2023-04-20T15:14:27.825Z,17.56
2023-04-20T15:16:58.130Z,18.55
2023-04-20T15:19:26.778Z,18.12
2023-04-20T15:21:55.112Z,17.99
2023-04-20T15:24:24.095Z,18.12
2023-04-20T15:26:54.530Z,18.85
2023-04-20T15:29:23.843Z,18.57
2023-04-20T15:31:52.483Z,18.87
2023-04-20T15:34:23.099Z,19.06
2023-04-20T15:36:52.112Z,18.10
2023-04-20T15:39:21.769Z,18.41
2023-04-20T15:41:50.131Z,18.10
2023-04-20T15:44:18.988Z,18.78
2023-04-20T15:46:47.492Z,19.25
2023-04-20T15:49:19.999Z,18.90
2023-04-20T15:51:49.923Z,18.90
2023-04-20T15:54:19.828Z,18.23
2023-04-20T15:56:48.426Z,18.22
2023-04-20T15:59:17.317Z,18.18
2023-04-20T16:01:45.985Z,17.99
2023-04-20T16:04:15.209Z,18.13
2023-04-20T16:06:43.720Z,17.65
2023-04-20T16:09:13.748Z,17.74
2023-04-20T16:11:47.373Z,18.14
2023-04-20T16:14:16.249Z,18.51
2023-04-20T16:16:44.813Z,18.09
2023-04-20T16:19:15.325Z,18.87
2023-04-20T16:21:43.675Z,18.52
2023-04-20T16:24:14.415Z,18.98
2023-04-20T16:26:42.907Z,18.84
2023-04-20T16:29:11.817Z,18.19
2023-04-20T16:31:42.036Z,18.55
2023-04-20T16:34:10.839Z,18.86
2023-04-20T16:36:39.169Z,18.56
2023-04-20T16:39:08.172Z,17.86
2023-04-20T16:41:37.865Z,18.16
2023-04-20T16:44:06.368Z,17.82
2023-04-20T16:46:34.737Z,17.58
2023-04-20T16:49:03.622Z,17.65
2023-04-20T16:51:31.861Z,17.56
2023-04-20T16:54:01.635Z,18.02
2023-04-20T16:56:29.982Z,17.67
2023-04-20T16:58:59.934Z,17.89
2023-04-20T17:01:28.351Z,17.67
2023-04-20T17:03:57.174Z,17.86
2023-04-20T17:06:26.332Z,18.06
2023-04-20T17:08:57.809Z,18.24
2023-04-20T17:11:26.344Z,18.30
2023-04-20T17:13:55.050Z,18.28
2023-04-20T17:16:24.792Z,18.71
2023-04-20T17:18:53.578Z,18.41
2023-04-20T17:21:21.959Z,18.42
2023-04-20T17:23:50.642Z,18.63
2023-04-20T17:26:18.789Z,18.47
2023-04-20T17:28:47.594Z,18.40
2023-04-20T17:31:16.024Z,18.27
2023-04-20T17:33:46.368Z,18.73
2023-04-20T17:36:14.864Z,18.22
2023-04-20T17:38:43.631Z,18.09
2023-04-20T17:41:11.911Z,18.13
2023-04-20T17:43:41.194Z,18.14
2023-04-20T17:46:09.500Z,18.17
2023-04-20T17:48:38.404Z,18.26
2023-04-20T17:51:09.923Z,18.57
2023-04-20T17:53:39.010Z,18.09
2023-04-20T17:56:07.509Z,18.20
2023-04-20T17:58:36.546Z,18.21
2023-04-20T18:01:06.992Z,18.14
2023-04-20T18:03:35.862Z,18.07
2023-04-20T18:06:04.756Z,18.09
2023-04-20T18:08:35.780Z,18.55
2023-04-20T18:11:05.734Z,18.24
2023-04-20T18:13:34.337Z,18.11
2023-04-20T18:16:07.322Z,18.15
2023-04-20T18:18:36.806Z,18.34
2023-04-20T18:21:05.451Z,18.11
2023-04-20T18:23:35.504Z,18.38
2023-04-20T18:26:04.059Z,17.88
2023-04-20T18:28:33.006Z,17.90
2023-04-20T18:31:02.601Z,17.81
2023-04-20T18:33:31.559Z,17.76
2023-04-20T18:35:59.971Z,17.58
2023-04-20T18:38:28.870Z,17.72
2023-04-20T18:41:00.008Z,18.06
2023-04-20T18:43:28.809Z,17.62
2023-04-20T18:45:57.169Z,17.72
2023-04-20T18:48:25.754Z,17.76
2023-04-20T18:50:54.032Z,17.72
2023-04-20T18:53:22.769Z,17.68
2023-04-20T18:55:52.120Z,17.61
2023-04-20T18:58:22.312Z,17.99
2023-04-20T19:00:51.023Z,17.46
2023-04-20T19:03:20.036Z,17.31
2023-04-20T19:05:48.555Z,17.20
2023-04-20T19:08:17.189Z,17.05
2023-04-20T19:10:45.446Z,17.00
2023-04-20T19:13:17.665Z,17.04
2023-04-20T19:15:47.502Z,17.30
2023-04-20T19:18:16.327Z,16.90
2023-04-20T19:20:44.771Z,16.88
2023-04-20T19:23:13.590Z,16.87
2023-04-20T19:25:41.779Z,16.79
2023-04-20T19:28:12.321Z,16.71
2023-04-20T19:30:40.824Z,16.78
2023-04-20T19:33:10.974Z,17.00
2023-04-20T19:35:41.259Z,16.62
2023-04-20T19:38:09.868Z,16.63
2023-04-20T19:40:38.182Z,16.53
2023-04-20T19:43:06.940Z,16.45
2023-04-20T19:45:35.213Z,16.36
2023-04-20T19:48:03.906Z,16.31
2023-04-20T19:50:33.890Z,16.69
2023-04-20T19:53:02.740Z,16.31
2023-04-20T19:55:31.325Z,16.21
2023-04-20T19:58:00.169Z,16.24
2023-04-20T20:00:28.654Z,16.11
2023-04-20T20:02:57.466Z,16.11
2023-04-20T20:05:25.845Z,16.15
2023-04-20T20:07:55.985Z,16.54
2023-04-20T20:10:24.517Z,16.13
2023-04-20T20:12:53.113Z,16.13
2023-04-20T20:15:21.410Z,16.07
2023-04-20T20:17:50.043Z,16.00
2023-04-20T20:20:18.771Z,16.02
2023-04-20T20:22:48.493Z,16.03
2023-04-20T20:25:19.742Z,16.44
2023-04-20T20:27:48.583Z,15.95
2023-04-20T20:30:17.095Z,15.99
2023-04-20T20:32:46.643Z,15.84
2023-04-20T20:35:15.159Z,15.89
2023-04-20T20:37:45.544Z,15.95
2023-04-20T20:40:19.408Z,16.49
2023-04-20T20:42:48.732Z,16.00
2023-04-20T20:45:18.232Z,16.20
2023-04-20T20:47:47.232Z,16.40
2023-04-20T20:50:17.577Z,16.75
2023-04-20T20:52:46.248Z,16.40
2023-04-20T20:55:14.776Z,16.42
2023-04-20T20:57:46.095Z,16.75
2023-04-20T21:00:19.164Z,16.71
2023-04-20T21:02:47.788Z,16.34
2023-04-20T21:05:16.256Z,16.28
2023-04-20T21:07:44.889Z,16.19
2023-04-20T21:10:13.206Z,16.13
2023-04-20T21:12:41.783Z,15.94
2023-04-20T21:15:12.743Z,16.23
2023-04-20T21:17:41.358Z,15.71
2023-04-20T21:20:10.922Z,15.85
2023-04-20T21:22:40.057Z,15.51
2023-04-20T21:25:09.193Z,15.61
2023-04-20T21:27:37.741Z,15.36
2023-04-20T21:30:06.681Z,15.32
2023-04-20T21:32:36.957Z,15.53
2023-04-20T21:35:06.284Z,15.22
2023-04-20T21:37:35.059Z,15.04
2023-04-20T21:40:03.872Z,15.03
2023-04-20T21:42:32.646Z,14.88
2023-04-20T21:45:00.890Z,14.75
2023-04-20T21:47:29.699Z,14.67
2023-04-20T21:49:59.648Z,15.06
2023-04-20T21:52:28.446Z,14.62
2023-04-20T21:54:56.992Z,14.68
2023-04-20T21:57:25.660Z,14.57
2023-04-20T21:59:54.017Z,14.60
2023-04-20T22:02:23.008Z,14.54
2023-04-20T22:04:51.588Z,14.52
2023-04-20T22:07:24.046Z,14.88
2023-04-20T22:09:52.275Z,14.46
2023-04-20T22:12:32.253Z,14.36
2023-04-20T22:15:04.715Z,14.43
2023-04-20T22:17:33.717Z,14.45
2023-04-20T22:20:02.024Z,14.40
2023-04-20T22:22:33.203Z,14.76
2023-04-20T22:25:01.855Z,14.47
2023-04-20T22:27:30.441Z,14.40
2023-04-20T22:29:58.960Z,14.45
2023-04-20T22:32:27.898Z,14.32
2023-04-20T22:34:56.505Z,14.32
2023-04-20T22:37:25.231Z,14.26
2023-04-20T22:39:54.912Z,14.63
2023-04-20T22:42:23.620Z,14.22
2023-04-20T22:44:51.887Z,14.18
2023-04-20T22:47:20.591Z,14.18
2023-04-20T22:49:49.223Z,14.17
2023-04-20T22:52:18.033Z,14.20
2023-04-20T22:54:48.427Z,14.10
2023-04-20T22:57:19.229Z,14.57
2023-04-20T22:59:48.943Z,14.10
2023-04-20T23:02:17.709Z,14.16
2023-04-20T23:04:45.973Z,14.03
2023-04-20T23:07:17.598Z,14.04
2023-04-20T23:09:45.778Z,14.04
2023-04-20T23:12:14.289Z,14.03
2023-04-20T23:14:43.906Z,14.36
2023-04-20T23:17:12.511Z,14.00
2023-04-20T23:19:41.187Z,13.94
2023-04-20T23:22:09.873Z,13.90
2023-04-20T23:24:38.140Z,13.95
2023-04-20T23:27:06.758Z,13.73
2023-04-20T23:29:34.981Z,13.73
2023-04-20T23:32:05.162Z,14.16
2023-04-20T23:34:33.404Z,13.73
2023-04-20T23:37:01.951Z,13.67
2023-04-20T23:39:30.190Z,13.63
2023-04-20T23:41:58.798Z,13.63
2023-04-20T23:44:27.048Z,13.58
2023-04-20T23:46:55.585Z,13.57
2023-04-20T23:49:25.168Z,13.93
2023-04-20T23:51:53.731Z,13.48
2023-04-20T23:54:21.954Z,13.26
2023-04-20T23:56:52.138Z,13.43
2023-04-20T23:59:20.514Z,13.26
